Ann Marie Rose — WDA320 — position and weather

sailwx.info

Track history (hours):
 
Tides and Currents Weather Stations Pressure Air Temp Water Temp Dewpoint Dewpoint Depression Visibility Wind Speed Wind Dir Waves Ship Positions

Ann Marie Rose

Last reported at 2017-Jan-20 13:11 UTC. Time now 2017-Jan-23 23:07 UTC.
Position N 34°38' W 076°44'.

Length 14 m.

Type: Pleasure craft. MMSI: 338095872.

Date/timePositionNaut miles runAvg speedWind from/ knotsBaromVisibWave heightAir tempDewpointWater temp
2017-Jan-20 13:11N 34°38' W 076°44'5 7.4
2017-Jan-20 12:33N 34°41' W 076°40'3 2.6
2017-Jan-20 11:31N 34°43' W 076°42'0 0.0
2017-Jan-20 10:31N 34°43' W 076°42'0 0.0
2017-Jan-20 09:31N 34°43' W 076°42'0 0.0
2017-Jan-20 08:31N 34°43' W 076°42'0 0.0
2017-Jan-20 07:31N 34°43' W 076°42'0 0.0
2017-Jan-20 06:31N 34°43' W 076°42'0 0.0
2017-Jan-20 05:31N 34°43' W 076°42'0 0.0
2017-Jan-20 04:31N 34°43' W 076°42'0 0.0
2017-Jan-20 03:31N 34°43' W 076°42'0 0.0
2017-Jan-20 02:31N 34°43' W 076°42'0 0.0
2017-Jan-20 01:31N 34°43' W 076°42'0 0.0
2017-Jan-20 00:31N 34°43' W 076°42'0 0.0
2017-Jan-19 23:31N 34°43' W 076°42'0 0.0
2017-Jan-19 22:31N 34°43' W 076°42'0 0.0
2017-Jan-19 21:31N 34°43' W 076°42'1 0.6
2017-Jan-19 20:33N 34°43' W 076°42'7 6.8
2017-Jan-19 19:33N 34°50' W 076°41'  
2017-Jan-17 13:13N 36°44' W 076°16'3 4.7
2017-Jan-17 12:33N 36°47' W 076°18'3 3.2
2017-Jan-17 11:32N 36°50' W 076°18'0 0.0
2017-Jan-17 10:32N 36°50' W 076°18'0 0.0
2017-Jan-17 09:29N 36°50' W 076°18'0 0.0
2017-Jan-17 08:32N 36°50' W 076°18'0 0.0
2017-Jan-17 07:32N 36°50' W 076°18'0 0.0
2017-Jan-17 06:32N 36°50' W 076°18'0 0.0
2017-Jan-17 05:32N 36°50' W 076°18'0 0.0
2017-Jan-17 04:32N 36°50' W 076°18'0 0.0
2017-Jan-17 03:32N 36°50' W 076°18'0 0.0
2017-Jan-17 02:32N 36°50' W 076°18'0 0.0
2017-Jan-17 01:29N 36°50' W 076°18'0 0.0
2017-Jan-17 00:32N 36°50' W 076°18'0 0.0
2017-Jan-16 23:32N 36°50' W 076°18'0 0.0
2017-Jan-16 22:32N 36°50' W 076°18'0 0.0
2017-Jan-16 21:32N 36°50' W 076°18'0 0.0
2017-Jan-16 20:29N 36°50' W 076°18'0 0.0
2017-Jan-16 19:20N 36°50' W 076°18'0 0.0
2017-Jan-16 18:32N 36°50' W 076°18'0 0.0
2017-Jan-16 17:32N 36°50' W 076°18'0 0.0
2017-Jan-16 16:29N 36°50' W 076°18'0 0.0
2017-Jan-16 15:32N 36°50' W 076°18'0 0.0
2017-Jan-16 14:29N 36°50' W 076°18'0 0.0
2017-Jan-16 13:32N 36°50' W 076°18'0 0.0
2017-Jan-16 12:32N 36°50' W 076°18'0 0.0
2017-Jan-16 10:32N 36°50' W 076°18'0 0.0
2017-Jan-16 09:32N 36°50' W 076°18'0 0.0
2017-Jan-16 08:32N 36°50' W 076°18'0 0.0
2017-Jan-16 07:29N 36°50' W 076°18'0 0.0
2017-Jan-16 06:32N 36°50' W 076°18'0 0.0
2017-Jan-16 05:32N 36°50' W 076°18'0 0.0
2017-Jan-16 04:32N 36°50' W 076°18'0 0.0
2017-Jan-16 03:32N 36°50' W 076°18'0 0.0
2017-Jan-16 02:29N 36°50' W 076°18'0 0.0
2017-Jan-16 01:32N 36°50' W 076°18'0 0.0
2017-Jan-16 00:29N 36°50' W 076°18'0 0.0
2017-Jan-15 23:32N 36°50' W 076°18'0 0.0
2017-Jan-15 22:26N 36°50' W 076°18'0 0.0
2017-Jan-15 21:23N 36°50' W 076°18'0 0.0
2017-Jan-15 20:17N 36°50' W 076°18'0 0.0
2017-Jan-15 18:26N 36°50' W 076°18'0 0.0
2017-Jan-15 17:32N 36°50' W 076°18'0 0.0
2017-Jan-15 16:26N 36°50' W 076°18'0 0.0
2017-Jan-15 15:26N 36°50' W 076°18'0 0.0
2017-Jan-15 14:32N 36°50' W 076°18'0 0.0
2017-Jan-15 13:29N 36°50' W 076°18'0 0.0
2017-Jan-15 12:23N 36°50' W 076°18'0 0.0
2017-Jan-15 11:32N 36°50' W 076°18'0 0.0
2017-Jan-15 10:29N 36°50' W 076°18'0 0.0
2017-Jan-15 09:26N 36°50' W 076°18'0 0.0
2017-Jan-15 08:32N 36°50' W 076°18'0 0.0
2017-Jan-15 07:32N 36°50' W 076°18'0 0.0
2017-Jan-15 06:29N 36°50' W 076°18'0 0.0
2017-Jan-15 05:29N 36°50' W 076°18'0 0.0
2017-Jan-15 04:32N 36°50' W 076°18'0 0.0
2017-Jan-15 03:32N 36°50' W 076°18'0 0.0
2017-Jan-15 02:29N 36°50' W 076°18'0 0.0
2017-Jan-15 01:32N 36°50' W 076°18'0 0.0
2017-Jan-15 00:32N 36°50' W 076°18'0 0.0
2017-Jan-14 23:32N 36°50' W 076°18'0 0.0
2017-Jan-14 22:32N 36°50' W 076°18'0 0.0
2017-Jan-14 21:23N 36°50' W 076°18'0 0.0
2017-Jan-14 20:32N 36°50' W 076°18'0 0.0
2017-Jan-14 19:32N 36°50' W 076°18'0 0.0
2017-Jan-14 18:32N 36°50' W 076°18'0 0.0
2017-Jan-14 16:26N 36°50' W 076°18'0 0.0
2017-Jan-14 15:32N 36°50' W 076°18'0 0.0
2017-Jan-14 14:32N 36°50' W 076°18'0 0.0
2017-Jan-14 11:32N 36°50' W 076°18'0 0.0
2017-Jan-14 10:32N 36°50' W 076°18'0 0.0
2017-Jan-14 09:32N 36°50' W 076°18'0 0.0
2017-Jan-14 08:32N 36°50' W 076°18'0 0.0
2017-Jan-14 07:32N 36°50' W 076°18'0 0.0
2017-Jan-14 06:17N 36°50' W 076°18'0 0.0
2017-Jan-14 05:26N 36°50' W 076°18'0 0.0
2017-Jan-14 03:29N 36°50' W 076°18'0 0.0
2017-Jan-13 19:20N 36°50' W 076°18'0 0.0
2017-Jan-13 18:14N 36°50' W 076°18'0 0.0
2017-Jan-13 17:20N 36°50' W 076°18'0 0.0
2017-Jan-13 16:29N 36°50' W 076°18'0 0.0
2017-Jan-13 15:32N 36°50' W 076°18'0 0.0
2017-Jan-13 14:32N 36°50' W 076°18'0 0.0
2017-Jan-13 13:26N 36°50' W 076°18'0 0.0
2017-Jan-13 12:32N 36°50' W 076°18'0 0.0
2017-Jan-13 11:32N 36°50' W 076°18'0 0.0
2017-Jan-13 10:29N 36°50' W 076°18'0 0.0
2017-Jan-13 09:32N 36°50' W 076°18'0 0.0
2017-Jan-13 08:32N 36°50' W 076°18'0 0.0
2017-Jan-13 07:32N 36°50' W 076°18'0 0.0
2017-Jan-13 06:29N 36°50' W 076°18'0 0.0
2017-Jan-13 05:23N 36°50' W 076°18'0 0.0
2017-Jan-13 04:32N 36°50' W 076°18'0 0.0
2017-Jan-13 03:17N 36°50' W 076°18'0 0.0
2017-Jan-13 00:17N 36°50' W 076°18'0 0.0
2017-Jan-12 23:29N 36°50' W 076°18'0 0.0
2017-Jan-12 22:32N 36°50' W 076°18'0 0.0
2017-Jan-12 21:29N 36°50' W 076°18'0 0.0
2017-Jan-12 20:23N 36°50' W 076°18'0 0.0
2017-Jan-12 19:23N 36°50' W 076°18'0 0.0
2017-Jan-12 18:29N 36°50' W 076°18'0 0.0
2017-Jan-12 17:29N 36°50' W 076°18'0 0.0
2017-Jan-12 16:32N 36°50' W 076°18'0 0.0
2017-Jan-12 15:32N 36°50' W 076°18'0 0.0
2017-Jan-12 14:32N 36°50' W 076°18'0 0.0
2017-Jan-12 13:29N 36°50' W 076°18'0 0.0
2017-Jan-12 12:29N 36°50' W 076°18'0 0.0
2017-Jan-12 11:32N 36°50' W 076°18'0 0.0
2017-Jan-12 10:32N 36°50' W 076°18'0 0.0
2017-Jan-12 09:32N 36°50' W 076°18'0 0.0
2017-Jan-12 08:32N 36°50' W 076°18'0 0.0
2017-Jan-12 07:32N 36°50' W 076°18'0 0.0
2017-Jan-12 06:32N 36°50' W 076°18'0 0.0
2017-Jan-12 05:32N 36°50' W 076°18'0 0.0
2017-Jan-12 04:32N 36°50' W 076°18'0 0.0
2017-Jan-12 03:32N 36°50' W 076°18'0 0.0
2017-Jan-12 02:32N 36°50' W 076°18'0 0.0
2017-Jan-12 01:32N 36°50' W 076°18'0 0.0
2017-Jan-12 00:32N 36°50' W 076°18'0 0.0
2017-Jan-11 23:32N 36°50' W 076°18'0 0.0
2017-Jan-11 22:32N 36°50' W 076°18'0 0.0
2017-Jan-11 21:32N 36°50' W 076°18'0 0.0
2017-Jan-11 20:32N 36°50' W 076°18'0 0.0
2017-Jan-11 19:32N 36°50' W 076°18'0 0.0
2017-Jan-11 18:32N 36°50' W 076°18'0 0.0
2017-Jan-11 17:23N 36°50' W 076°18'0 0.0
2017-Jan-11 16:32N 36°50' W 076°18'0 0.0
2017-Jan-11 15:32N 36°50' W 076°18'0 0.0
2017-Jan-11 14:32N 36°50' W 076°18'0 0.0
2017-Jan-11 13:32N 36°50' W 076°18'0 0.0
2017-Jan-11 12:32N 36°50' W 076°18'0 0.0
2017-Jan-11 11:29N 36°50' W 076°18'0 0.0
2017-Jan-11 10:32N 36°50' W 076°18'0 0.0
2017-Jan-11 09:32N 36°50' W 076°18'0 0.0
2017-Jan-11 08:32N 36°50' W 076°18'0 0.0
2017-Jan-11 07:32N 36°50' W 076°18'0 0.0
2017-Jan-11 06:32N 36°50' W 076°18'0 0.0
2017-Jan-11 05:32N 36°50' W 076°18'0 0.0
2017-Jan-11 04:32N 36°50' W 076°18'0 0.0
2017-Jan-11 03:32N 36°50' W 076°18'0 0.0
2017-Jan-11 02:32N 36°50' W 076°18'0 0.0
2017-Jan-11 01:32N 36°50' W 076°18'0 0.0
2017-Jan-11 00:26N 36°50' W 076°18'0 0.0
2017-Jan-10 23:29N 36°50' W 076°18'0 0.0
2017-Jan-10 22:32N 36°50' W 076°18'0 0.0
2017-Jan-10 21:32N 36°50' W 076°18'0 0.0
2017-Jan-10 19:32N 36°50' W 076°18'0 0.0
2017-Jan-10 18:14N 36°50' W 076°18'0 0.0
2017-Jan-10 16:32N 36°50' W 076°18'  
Track history (hours):
 
Tides and Currents Weather Stations Pressure Air Temp Water Temp Dewpoint Dewpoint Depression Visibility Wind Speed Wind Dir Waves Ship Positions

Ann Marie Rose

Last reported at 2017-Jan-20 13:11 UTC. Time now 2017-Jan-23 23:07 UTC.
Position N 34°38' W 076°44'.

Length 14 m.

Type: Pleasure craft. MMSI: 338095872.

Date/timePositionNaut miles runAvg speedWind from/ knotsBaromVisibWave heightAir tempDewpointWater temp
2017-Jan-20 13:11N 34°38' W 076°44'5 7.4
2017-Jan-20 12:33N 34°41' W 076°40'3 2.6
2017-Jan-20 11:31N 34°43' W 076°42'0 0.0
2017-Jan-20 10:31N 34°43' W 076°42'0 0.0
2017-Jan-20 09:31N 34°43' W 076°42'0 0.0
2017-Jan-20 08:31N 34°43' W 076°42'0 0.0
2017-Jan-20 07:31N 34°43' W 076°42'0 0.0
2017-Jan-20 06:31N 34°43' W 076°42'0 0.0
2017-Jan-20 05:31N 34°43' W 076°42'0 0.0
2017-Jan-20 04:31N 34°43' W 076°42'0 0.0
2017-Jan-20 03:31N 34°43' W 076°42'0 0.0
2017-Jan-20 02:31N 34°43' W 076°42'0 0.0
2017-Jan-20 01:31N 34°43' W 076°42'0 0.0
2017-Jan-20 00:31N 34°43' W 076°42'0 0.0
2017-Jan-19 23:31N 34°43' W 076°42'0 0.0
2017-Jan-19 22:31N 34°43' W 076°42'0 0.0
2017-Jan-19 21:31N 34°43' W 076°42'1 0.6
2017-Jan-19 20:33N 34°43' W 076°42'7 6.8
2017-Jan-19 19:33N 34°50' W 076°41'  
2017-Jan-17 13:13N 36°44' W 076°16'3 4.7
2017-Jan-17 12:33N 36°47' W 076°18'3 3.2
2017-Jan-17 11:32N 36°50' W 076°18'0 0.0
2017-Jan-17 10:32N 36°50' W 076°18'0 0.0
2017-Jan-17 09:29N 36°50' W 076°18'0 0.0
2017-Jan-17 08:32N 36°50' W 076°18'0 0.0
2017-Jan-17 07:32N 36°50' W 076°18'0 0.0
2017-Jan-17 06:32N 36°50' W 076°18'0 0.0
2017-Jan-17 05:32N 36°50' W 076°18'0 0.0
2017-Jan-17 04:32N 36°50' W 076°18'0 0.0
2017-Jan-17 03:32N 36°50' W 076°18'0 0.0
2017-Jan-17 02:32N 36°50' W 076°18'0 0.0
2017-Jan-17 01:29N 36°50' W 076°18'0 0.0
2017-Jan-17 00:32N 36°50' W 076°18'0 0.0
2017-Jan-16 23:32N 36°50' W 076°18'0 0.0
2017-Jan-16 22:32N 36°50' W 076°18'0 0.0
2017-Jan-16 21:32N 36°50' W 076°18'0 0.0
2017-Jan-16 20:29N 36°50' W 076°18'0 0.0
2017-Jan-16 19:20N 36°50' W 076°18'0 0.0
2017-Jan-16 18:32N 36°50' W 076°18'0 0.0
2017-Jan-16 17:32N 36°50' W 076°18'0 0.0
2017-Jan-16 16:29N 36°50' W 076°18'0 0.0
2017-Jan-16 15:32N 36°50' W 076°18'0 0.0
2017-Jan-16 14:29N 36°50' W 076°18'0 0.0
2017-Jan-16 13:32N 36°50' W 076°18'0 0.0
2017-Jan-16 12:32N 36°50' W 076°18'0 0.0
2017-Jan-16 10:32N 36°50' W 076°18'0 0.0
2017-Jan-16 09:32N 36°50' W 076°18'0 0.0
2017-Jan-16 08:32N 36°50' W 076°18'0 0.0
2017-Jan-16 07:29N 36°50' W 076°18'0 0.0
2017-Jan-16 06:32N 36°50' W 076°18'0 0.0
2017-Jan-16 05:32N 36°50' W 076°18'0 0.0
2017-Jan-16 04:32N 36°50' W 076°18'0 0.0
2017-Jan-16 03:32N 36°50' W 076°18'0 0.0
2017-Jan-16 02:29N 36°50' W 076°18'0 0.0
2017-Jan-16 01:32N 36°50' W 076°18'0 0.0
2017-Jan-16 00:29N 36°50' W 076°18'0 0.0
2017-Jan-15 23:32N 36°50' W 076°18'0 0.0
2017-Jan-15 22:26N 36°50' W 076°18'0 0.0
2017-Jan-15 21:23N 36°50' W 076°18'0 0.0
2017-Jan-15 20:17N 36°50' W 076°18'0 0.0
2017-Jan-15 18:26N 36°50' W 076°18'0 0.0
2017-Jan-15 17:32N 36°50' W 076°18'0 0.0
2017-Jan-15 16:26N 36°50' W 076°18'0 0.0
2017-Jan-15 15:26N 36°50' W 076°18'0 0.0
2017-Jan-15 14:32N 36°50' W 076°18'0 0.0
2017-Jan-15 13:29N 36°50' W 076°18'0 0.0
2017-Jan-15 12:23N 36°50' W 076°18'0 0.0
2017-Jan-15 11:32N 36°50' W 076°18'0 0.0
2017-Jan-15 10:29N 36°50' W 076°18'0 0.0
2017-Jan-15 09:26N 36°50' W 076°18'0 0.0
2017-Jan-15 08:32N 36°50' W 076°18'0 0.0
2017-Jan-15 07:32N 36°50' W 076°18'0 0.0
2017-Jan-15 06:29N 36°50' W 076°18'0 0.0
2017-Jan-15 05:29N 36°50' W 076°18'0 0.0
2017-Jan-15 04:32N 36°50' W 076°18'0 0.0
2017-Jan-15 03:32N 36°50' W 076°18'0 0.0
2017-Jan-15 02:29N 36°50' W 076°18'0 0.0
2017-Jan-15 01:32N 36°50' W 076°18'0 0.0
2017-Jan-15 00:32N 36°50' W 076°18'0 0.0
2017-Jan-14 23:32N 36°50' W 076°18'0 0.0
2017-Jan-14 22:32N 36°50' W 076°18'0 0.0
2017-Jan-14 21:23N 36°50' W 076°18'0 0.0
2017-Jan-14 20:32N 36°50' W 076°18'0 0.0
2017-Jan-14 19:32N 36°50' W 076°18'0 0.0
2017-Jan-14 18:32N 36°50' W 076°18'0 0.0
2017-Jan-14 16:26N 36°50' W 076°18'0 0.0
2017-Jan-14 15:32N 36°50' W 076°18'0 0.0
2017-Jan-14 14:32N 36°50' W 076°18'0 0.0
2017-Jan-14 11:32N 36°50' W 076°18'0 0.0
2017-Jan-14 10:32N 36°50' W 076°18'0 0.0
2017-Jan-14 09:32N 36°50' W 076°18'0 0.0
2017-Jan-14 08:32N 36°50' W 076°18'0 0.0
2017-Jan-14 07:32N 36°50' W 076°18'0 0.0
2017-Jan-14 06:17N 36°50' W 076°18'0 0.0
2017-Jan-14 05:26N 36°50' W 076°18'0 0.0
2017-Jan-14 03:29N 36°50' W 076°18'0 0.0
2017-Jan-13 19:20N 36°50' W 076°18'0 0.0
2017-Jan-13 18:14N 36°50' W 076°18'0 0.0
2017-Jan-13 17:20N 36°50' W 076°18'0 0.0
2017-Jan-13 16:29N 36°50' W 076°18'0 0.0
2017-Jan-13 15:32N 36°50' W 076°18'0 0.0
2017-Jan-13 14:32N 36°50' W 076°18'0 0.0
2017-Jan-13 13:26N 36°50' W 076°18'0 0.0
2017-Jan-13 12:32N 36°50' W 076°18'0 0.0
2017-Jan-13 11:32N 36°50' W 076°18'0 0.0
2017-Jan-13 10:29N 36°50' W 076°18'0 0.0
2017-Jan-13 09:32N 36°50' W 076°18'0 0.0
2017-Jan-13 08:32N 36°50' W 076°18'0 0.0
2017-Jan-13 07:32N 36°50' W 076°18'0 0.0
2017-Jan-13 06:29N 36°50' W 076°18'0 0.0
2017-Jan-13 05:23N 36°50' W 076°18'0 0.0
2017-Jan-13 04:32N 36°50' W 076°18'0 0.0
2017-Jan-13 03:17N 36°50' W 076°18'0 0.0
2017-Jan-13 00:17N 36°50' W 076°18'0 0.0
2017-Jan-12 23:29N 36°50' W 076°18'0 0.0
2017-Jan-12 22:32N 36°50' W 076°18'0 0.0
2017-Jan-12 21:29N 36°50' W 076°18'0 0.0
2017-Jan-12 20:23N 36°50' W 076°18'0 0.0
2017-Jan-12 19:23N 36°50' W 076°18'0 0.0
2017-Jan-12 18:29N 36°50' W 076°18'0 0.0
2017-Jan-12 17:29N 36°50' W 076°18'0 0.0
2017-Jan-12 16:32N 36°50' W 076°18'0 0.0
2017-Jan-12 15:32N 36°50' W 076°18'0 0.0
2017-Jan-12 14:32N 36°50' W 076°18'0 0.0
2017-Jan-12 13:29N 36°50' W 076°18'0 0.0
2017-Jan-12 12:29N 36°50' W 076°18'0 0.0
2017-Jan-12 11:32N 36°50' W 076°18'0 0.0
2017-Jan-12 10:32N 36°50' W 076°18'0 0.0
2017-Jan-12 09:32N 36°50' W 076°18'0 0.0
2017-Jan-12 08:32N 36°50' W 076°18'0 0.0
2017-Jan-12 07:32N 36°50' W 076°18'0 0.0
2017-Jan-12 06:32N 36°50' W 076°18'0 0.0
2017-Jan-12 05:32N 36°50' W 076°18'0 0.0
2017-Jan-12 04:32N 36°50' W 076°18'0 0.0
2017-Jan-12 03:32N 36°50' W 076°18'0 0.0
2017-Jan-12 02:32N 36°50' W 076°18'0 0.0
2017-Jan-12 01:32N 36°50' W 076°18'0 0.0
2017-Jan-12 00:32N 36°50' W 076°18'0 0.0
2017-Jan-11 23:32N 36°50' W 076°18'0 0.0
2017-Jan-11 22:32N 36°50' W 076°18'0 0.0
2017-Jan-11 21:32N 36°50' W 076°18'0 0.0
2017-Jan-11 20:32N 36°50' W 076°18'0 0.0
2017-Jan-11 19:32N 36°50' W 076°18'0 0.0
2017-Jan-11 18:32N 36°50' W 076°18'0 0.0
2017-Jan-11 17:23N 36°50' W 076°18'0 0.0
2017-Jan-11 16:32N 36°50' W 076°18'0 0.0
2017-Jan-11 15:32N 36°50' W 076°18'0 0.0
2017-Jan-11 14:32N 36°50' W 076°18'0 0.0
2017-Jan-11 13:32N 36°50' W 076°18'0 0.0
2017-Jan-11 12:32N 36°50' W 076°18'0 0.0
2017-Jan-11 11:29N 36°50' W 076°18'0 0.0
2017-Jan-11 10:32N 36°50' W 076°18'0 0.0
2017-Jan-11 09:32N 36°50' W 076°18'0 0.0
2017-Jan-11 08:32N 36°50' W 076°18'0 0.0
2017-Jan-11 07:32N 36°50' W 076°18'0 0.0
2017-Jan-11 06:32N 36°50' W 076°18'0 0.0
2017-Jan-11 05:32N 36°50' W 076°18'0 0.0
2017-Jan-11 04:32N 36°50' W 076°18'0 0.0
2017-Jan-11 03:32N 36°50' W 076°18'0 0.0
2017-Jan-11 02:32N 36°50' W 076°18'0 0.0
2017-Jan-11 01:32N 36°50' W 076°18'0 0.0
2017-Jan-11 00:26N 36°50' W 076°18'0 0.0
2017-Jan-10 23:29N 36°50' W 076°18'0 0.0
2017-Jan-10 22:32N 36°50' W 076°18'0 0.0
2017-Jan-10 21:32N 36°50' W 076°18'0 0.0
2017-Jan-10 19:32N 36°50' W 076°18'0 0.0
2017-Jan-10 18:14N 36°50' W 076°18'0 0.0
2017-Jan-10 16:32N 36°50' W 076°18'  

Dump ship's entire track history